PSCRJ SBJR-SBMI
Flight info
| Callsign | PSCRJ |
|---|---|
| Flight time | N/A |
| Altitude | 1200 |
| Route | DCT REH 2301S043W DCT 2301S04317W DCT 2200S04314W DCT 2259S04313W DCT 2259S04311W DCT 2259S04304 DCT 2259S04300 DCT |
| Aircraft | S76/M-SDFGR/S |
Departure
| Time | 2026-04-29 21:10 |
|---|---|
| Airport | Jacarepaguá - Roberto Marinho Airport (SBJR) |
Arrival
| Time | N/A |
|---|---|
| Airport | Maricá Airport (SBMI) |
| Time | Latitude | Longitude | Altitude | Speed | Heading |
|---|---|---|---|---|---|
| 2026-04-29 20:48 | -22.98885 | -43.37256 | 14 ft | 0 kts | 184° |
| 2026-04-29 21:09 | -22.98887 | -43.37263 | 35 ft | 3 kts | 218° |
| 2026-04-29 21:09 | -22.98863 | -43.37283 | 47 ft | 8 kts | 287° |
| 2026-04-29 21:10 | -22.98808 | -43.37329 | 53 ft | 14 kts | 288° |
| 2026-04-29 21:10 | -22.98806 | -43.37350 | 61 ft | 7 kts | 178° |
| 2026-04-29 21:10 | -22.98828 | -43.37369 | 118 ft | 16 kts | 185° |
| 2026-04-29 21:10 | -22.99207 | -43.37410 | 630 ft | 84 kts | 182° |
| 2026-04-29 21:11 | -22.99883 | -43.37443 | 1321 ft | 117 kts | 177° |
| 2026-04-29 21:11 | -23.00776 | -43.37110 | 1364 ft | 147 kts | 154° |
| 2026-04-29 21:11 | -23.01697 | -43.36590 | 1276 ft | 150 kts | 143° |
| 2026-04-29 21:11 | -23.02363 | -43.35724 | 1191 ft | 150 kts | 123° |
| 2026-04-29 21:12 | -23.02968 | -43.34805 | 1203 ft | 150 kts | 125° |
| 2026-04-29 21:12 | -23.03583 | -43.33889 | 1214 ft | 151 kts | 124° |
| 2026-04-29 21:12 | -23.04167 | -43.32946 | 1215 ft | 150 kts | 116° |
| 2026-04-29 21:12 | -23.04273 | -43.31863 | 1231 ft | 148 kts | 79° |
| 2026-04-29 21:13 | -23.04040 | -43.30757 | 1222 ft | 150 kts | 77° |
| 2026-04-29 21:13 | -23.03818 | -43.29648 | 1221 ft | 150 kts | 76° |
| 2026-04-29 21:13 | -23.03574 | -43.28544 | 1220 ft | 151 kts | 76° |
| 2026-04-29 21:13 | -23.03333 | -43.27439 | 1220 ft | 151 kts | 76° |
| 2026-04-29 21:14 | -23.02878 | -43.26441 | 1204 ft | 149 kts | 45° |
| 2026-04-29 21:14 | -23.01932 | -43.26069 | 1220 ft | 150 kts | 359° |
| 2026-04-29 21:14 | -23.00958 | -43.26453 | 1218 ft | 152 kts | 323° |
| 2026-04-29 21:14 | -23.00441 | -43.27421 | 1219 ft | 152 kts | 280° |
| 2026-04-29 21:15 | -23.00548 | -43.28561 | 1234 ft | 155 kts | 254° |
| 2026-04-29 21:15 | -23.00964 | -43.29636 | 1208 ft | 152 kts | 241° |
| 2026-04-29 21:15 | -23.01286 | -43.30699 | 1187 ft | 147 kts | 267° |
| 2026-04-29 21:15 | -23.00898 | -43.31680 | 1221 ft | 145 kts | 311° |
| 2026-04-29 21:16 | -23.00129 | -43.32427 | 1229 ft | 150 kts | 319° |
| 2026-04-29 21:16 | -22.99350 | -43.33164 | 1222 ft | 151 kts | 319° |
| 2026-04-29 21:16 | -22.98533 | -43.33902 | 1220 ft | 151 kts | 320° |
| 2026-04-29 21:16 | -22.97723 | -43.34628 | 1219 ft | 152 kts | 320° |
| 2026-04-29 21:17 | -22.97021 | -43.35408 | 1255 ft | 131 kts | 296° |
| 2026-04-29 21:17 | -22.96890 | -43.36242 | 1210 ft | 97 kts | 255° |
| 2026-04-29 21:17 | -22.97116 | -43.36856 | 904 ft | 84 kts | 227° |
| 2026-04-29 21:17 | -22.97537 | -43.37245 | 542 ft | 75 kts | 199° |
| 2026-04-29 21:18 | -22.97760 | -43.37256 | 422 ft | 0 kts | 189° |
| 2026-04-29 21:18 | -22.98159 | -43.37318 | 190 ft | 57 kts | 184° |
| 2026-04-29 21:19 | -22.98452 | -43.37346 | 46 ft | 31 kts | 181° |
| 2026-04-29 21:19 | -22.98546 | -43.37353 | 33 ft | 18 kts | 182° |
| 2026-04-29 21:19 | -22.98597 | -43.37355 | 25 ft | 9 kts | 182° |
| 2026-04-29 21:19 | -22.98617 | -43.37358 | 14 ft | 1 kts | 182° |
| 2026-04-29 21:20 | -22.98624 | -43.37346 | 14 ft | 3 kts | 78° |
| 2026-04-29 21:20 | -22.98594 | -43.37309 | 14 ft | 10 kts | 43° |
| 2026-04-29 21:20 | -22.98540 | -43.37270 | 14 ft | 8 kts | 33° |